Aviation Digital Data Service (ADDS)

Output produced by METARs form (1348 UTC 17 September 2019)
found at http://www.aviationweather.gov/metar/data/
 
METAR text: SKBO 171320Z 02004KT 6000 FEW017 BKN200 15/10 A3038 NOSIG RMK HZ
Conditions at: SKBO (BOGOTA/ELDORADO , CO) observed 1320 UTC 17 September 2019
Temperature: 15.0°C (59°F)
Dewpoint: 10.0°C (50°F) [RH = 72%]
Pressure (altimeter): 30.38 inches Hg (1028.9 mb)
Winds: from the NNE (20 degrees) at 5 MPH (4 knots; 2.1 m/s)
Visibility: 4 miles ( 6 km)
Ceiling: 20000 feet AGL
Clouds: few clouds at 1700 feet AGL
broken clouds at 20000 feet AGL
Weather: no significant weather observed at this time

METAR text: SKBO 171300Z 05004KT 6000 FEW017 BKN200 13/11 A3038 NOSIG RMK HZ
Conditions at: SKBO (BOGOTA/ELDORADO , CO) observed 1300 UTC 17 September 2019
Temperature: 13.0°C (55°F)
Dewpoint: 11.0°C (52°F) [RH = 88%]
Pressure (altimeter): 30.38 inches Hg (1028.9 mb)
Winds: from the NE (50 degrees) at 5 MPH (4 knots; 2.1 m/s)
Visibility: 4 miles ( 6 km)
Ceiling: 20000 feet AGL
Clouds: few clouds at 1700 feet AGL
broken clouds at 20000 feet AGL
Weather: no significant weather observed at this time

METAR text: SKBO 171200Z VRB02KT 8000 3000E BCFG FEW017 BKN200 10/10 A3036BECMG FM1240 9999 NSW
Conditions at: SKBO (BOGOTA/ELDORADO , CO) observed 1200 UTC 17 September 2019
Temperature: 10.0°C (50°F)
Dewpoint: 10.0°C (50°F) [RH = 100%]
Pressure (altimeter): missing
Winds: variable direction winds at 2 MPH (2 knots; 1.0 m/s)
Visibility: 5 miles ( 8 km)
Ceiling: 20000 feet AGL
Clouds: few clouds at 1700 feet AGL
broken clouds at 20000 feet AGL
Weather: BCFG  (patches of fog)

METAR text: SKBO 171100Z VRB02KT 9000 MIFG SCT010 09/09 A3035 NOSIG
Conditions at: SKBO (BOGOTA/ELDORADO , CO) observed 1100 UTC 17 September 2019
Temperature: 9.0°C (48°F)
Dewpoint: 9.0°C (48°F) [RH = 100%]
Pressure (altimeter): 30.35 inches Hg (1027.9 mb)
Winds: variable direction winds at 2 MPH (2 knots; 1.0 m/s)
Visibility: 6 miles ( 9 km)
Ceiling: at least 12,000 feet AGL
Clouds: scattered clouds at 1000 feet AGL
Weather: MIFG  (shallow fog)

METAR text: SKBO 171030Z VRB02KT 9000 MIFG SCT010 10/09 A3034 NOSIG
Conditions at: SKBO (BOGOTA/ELDORADO , CO) observed 1030 UTC 17 September 2019
Temperature: 10.0°C (50°F)
Dewpoint: 9.0°C (48°F) [RH = 93%]
Pressure (altimeter): 30.34 inches Hg (1027.5 mb)
Winds: variable direction winds at 2 MPH (2 knots; 1.0 m/s)
Visibility: 6 miles ( 9 km)
Ceiling: at least 12,000 feet AGL
Clouds: scattered clouds at 1000 feet AGL
Weather: MIFG  (shallow fog)

METAR text: SKBO 171000Z VRB02KT 9000 VCFG SCT010 10/10 A3033 NOSIG
Conditions at: SKBO (BOGOTA/ELDORADO , CO) observed 1000 UTC 17 September 2019
Temperature: 10.0°C (50°F)
Dewpoint: 10.0°C (50°F) [RH = 100%]
Pressure (altimeter): 30.33 inches Hg (1027.2 mb)
Winds: variable direction winds at 2 MPH (2 knots; 1.0 m/s)
Visibility: 6 miles ( 9 km)
Ceiling: at least 12,000 feet AGL
Clouds: scattered clouds at 1000 feet AGL
Weather: VCFG  (fog in vicinity)

METAR text: SKBO 170900Z VRB02KT 2000 BCFG FEW005 SCT070 09/08 A3033 NOSIG
Conditions at: SKBO (BOGOTA/ELDORADO , CO) observed 0900 UTC 17 September 2019
Temperature: 9.0°C (48°F)
Dewpoint: 8.0°C (46°F) [RH = 93%]
Pressure (altimeter): 30.33 inches Hg (1027.2 mb)
Winds: variable direction winds at 2 MPH (2 knots; 1.0 m/s)
Visibility: 1.24 miles (2.00 km)
Ceiling: at least 12,000 feet AGL
Clouds: few clouds at 500 feet AGL
scattered clouds at 7000 feet AGL
Weather: BCFG  (patches of fog)

METAR text: SKBO 170800Z VRB02KT 9000 VCFG SCT015 09/08 A3031 NOSIG
Conditions at: SKBO (BOGOTA/ELDORADO , CO) observed 0800 UTC 17 September 2019
Temperature: 9.0°C (48°F)
Dewpoint: 8.0°C (46°F) [RH = 93%]
Pressure (altimeter): 30.31 inches Hg (1026.5 mb)
Winds: variable direction winds at 2 MPH (2 knots; 1.0 m/s)
Visibility: 6 miles ( 9 km)
Ceiling: at least 12,000 feet AGL
Clouds: scattered clouds at 1500 feet AGL
Weather: VCFG  (fog in vicinity)

METAR text: SKBO 170700Z VRB02KT 9999 MIFG FEW017 10/09 A3032 NOSIG
Conditions at: SKBO (BOGOTA/ELDORADO , CO) observed 0700 UTC 17 September 2019
Temperature: 10.0°C (50°F)
Dewpoint: 9.0°C (48°F) [RH = 93%]
Pressure (altimeter): 30.32 inches Hg (1026.8 mb)
Winds: variable direction winds at 2 MPH (2 knots; 1.0 m/s)
Visibility: 6 or more miles (10+ km)
Ceiling: at least 12,000 feet AGL
Clouds: few clouds at 1700 feet AGL
Weather: MIFG  (shallow fog)

METAR text: SKBO 170600Z VRB02KT 9999 SCT017 12/10 A3035 NOSIG
Conditions at: SKBO (BOGOTA/ELDORADO , CO) observed 0600 UTC 17 September 2019
Temperature: 12.0°C (54°F)
Dewpoint: 10.0°C (50°F) [RH = 88%]
Pressure (altimeter): 30.35 inches Hg (1027.9 mb)
Winds: variable direction winds at 2 MPH (2 knots; 1.0 m/s)
Visibility: 6 or more miles (10+ km)
Ceiling: at least 12,000 feet AGL
Clouds: scattered clouds at 1700 feet AGL
Weather: no significant weather observed at this time

METAR text: SKBO 170500Z VRB02KT 9999 SCT017 12/10 A3037 NOSIG
Conditions at: SKBO (BOGOTA/ELDORADO , CO) observed 0500 UTC 17 September 2019
Temperature: 12.0°C (54°F)
Dewpoint: 10.0°C (50°F) [RH = 88%]
Pressure (altimeter): 30.37 inches Hg (1028.5 mb)
Winds: variable direction winds at 2 MPH (2 knots; 1.0 m/s)
Visibility: 6 or more miles (10+ km)
Ceiling: at least 12,000 feet AGL
Clouds: scattered clouds at 1700 feet AGL
Weather: no significant weather observed at this time

METAR text: SKBO 170400Z VRB02KT 9999 SCT017 11/10 A3038 NOSIG
Conditions at: SKBO (BOGOTA/ELDORADO , CO) observed 0400 UTC 17 September 2019
Temperature: 11.0°C (52°F)
Dewpoint: 10.0°C (50°F) [RH = 94%]
Pressure (altimeter): 30.38 inches Hg (1028.9 mb)
Winds: variable direction winds at 2 MPH (2 knots; 1.0 m/s)
Visibility: 6 or more miles (10+ km)
Ceiling: at least 12,000 feet AGL
Clouds: scattered clouds at 1700 feet AGL
Weather: no significant weather observed at this time

METAR text: SKBO 170300Z VRB02KT 9999 SCT017 13/10 A3037 NOSIG
Conditions at: SKBO (BOGOTA/ELDORADO , CO) observed 0300 UTC 17 September 2019
Temperature: 13.0°C (55°F)
Dewpoint: 10.0°C (50°F) [RH = 82%]
Pressure (altimeter): 30.37 inches Hg (1028.5 mb)
Winds: variable direction winds at 2 MPH (2 knots; 1.0 m/s)
Visibility: 6 or more miles (10+ km)
Ceiling: at least 12,000 feet AGL
Clouds: scattered clouds at 1700 feet AGL
Weather: no significant weather observed at this time

METAR text: SKBO 170200Z VRB02KT 9999 SCT017 13/11 A3035 NOSIG
Conditions at: SKBO (BOGOTA/ELDORADO , CO) observed 0200 UTC 17 September 2019
Temperature: 13.0°C (55°F)
Dewpoint: 11.0°C (52°F) [RH = 88%]
Pressure (altimeter): 30.35 inches Hg (1027.9 mb)
Winds: variable direction winds at 2 MPH (2 knots; 1.0 m/s)
Visibility: 6 or more miles (10+ km)
Ceiling: at least 12,000 feet AGL
Clouds: scattered clouds at 1700 feet AGL
Weather: no significant weather observed at this time

METAR text: SKBO 170100Z 30004KT 9999 SCT017 14/11 A3034 NOSIG
Conditions at: SKBO (BOGOTA/ELDORADO , CO) observed 0100 UTC 17 September 2019
Temperature: 14.0°C (57°F)
Dewpoint: 11.0°C (52°F) [RH = 82%]
Pressure (altimeter): 30.34 inches Hg (1027.5 mb)
Winds: from the WNW (300 degrees) at 5 MPH (4 knots; 2.1 m/s)
Visibility: 6 or more miles (10+ km)
Ceiling: at least 12,000 feet AGL
Clouds: scattered clouds at 1700 feet AGL
Weather: no significant weather observed at this time

METAR text: SKBO 170000Z 30006KT 9999 SCT020 14/11 A3031 NOSIG
Conditions at: SKBO (BOGOTA/ELDORADO , CO) observed 0000 UTC 17 September 2019
Temperature: 14.0°C (57°F)
Dewpoint: 11.0°C (52°F) [RH = 82%]
Pressure (altimeter): 30.31 inches Hg (1026.5 mb)
Winds: from the WNW (300 degrees) at 7 MPH (6 knots; 3.1 m/s)
Visibility: 6 or more miles (10+ km)
Ceiling: at least 12,000 feet AGL
Clouds: scattered clouds at 2000 feet AGL
Weather: no significant weather observed at this time

METAR text: SKBO 162300Z 31007KT 9999 SCT020 SCT250 15/11 A3028 NOSIG
Conditions at: SKBO (BOGOTA/ELDORADO , CO) observed 2300 UTC 16 September 2019
Temperature: 15.0°C (59°F)
Dewpoint: 11.0°C (52°F) [RH = 77%]
Pressure (altimeter): 30.28 inches Hg (1025.5 mb)
Winds: from the NW (310 degrees) at 8 MPH (7 knots; 3.6 m/s)
Visibility: 6 or more miles (10+ km)
Ceiling: at least 12,000 feet AGL
Clouds: scattered clouds at 2000 feet AGL
scattered clouds at 25000 feet AGL
Weather: no significant weather observed at this time

METAR text: SKBO 162200Z 25008KT 9999 FEW023 SCT250 17/11 A3027 NOSIG
Conditions at: SKBO (BOGOTA/ELDORADO , CO) observed 2200 UTC 16 September 2019
Temperature: 17.0°C (63°F)
Dewpoint: 11.0°C (52°F) [RH = 68%]
Pressure (altimeter): 30.27 inches Hg (1025.1 mb)
Winds: from the WSW (250 degrees) at 9 MPH (8 knots; 4.1 m/s)
Visibility: 6 or more miles (10+ km)
Ceiling: at least 12,000 feet AGL
Clouds: few clouds at 2300 feet AGL
scattered clouds at 25000 feet AGL
Weather: no significant weather observed at this time

METAR text: SKBO 162100Z 24012KT 9999 BKN017 SCT250 18/11 A3027 NOSIG
Conditions at: SKBO (BOGOTA/ELDORADO , CO) observed 2100 UTC 16 September 2019
Temperature: 18.0°C (64°F)
Dewpoint: 11.0°C (52°F) [RH = 64%]
Pressure (altimeter): 30.27 inches Hg (1025.1 mb)
Winds: from the WSW (240 degrees) at 14 MPH (12 knots; 6.2 m/s)
Visibility: 6 or more miles (10+ km)
Ceiling: 1700 feet AGL
Clouds: broken clouds at 1700 feet AGL
scattered clouds at 25000 feet AGL
Weather: no significant weather observed at this time

METAR text: SKBO 162000Z 15012KT 9999 SCT017 BKN250 19/07 A3028 NOSIG
Conditions at: SKBO (BOGOTA/ELDORADO , CO) observed 2000 UTC 16 September 2019
Temperature: 19.0°C (66°F)
Dewpoint: 7.0°C (45°F) [RH = 46%]
Pressure (altimeter): 30.28 inches Hg (1025.5 mb)
Winds: from the SSE (150 degrees) at 14 MPH (12 knots; 6.2 m/s)
Visibility: 6 or more miles (10+ km)
Ceiling: 25000 feet AGL
Clouds: scattered clouds at 1700 feet AGL
broken clouds at 25000 feet AGL
Weather: no significant weather observed at this time

METAR text: SKBO 161900Z 30006KT 9999 BKN017 SCT070 19/08 A3031 NOSIG
Conditions at: SKBO (BOGOTA/ELDORADO , CO) observed 1900 UTC 16 September 2019
Temperature: 19.0°C (66°F)
Dewpoint: 8.0°C (46°F) [RH = 49%]
Pressure (altimeter): 30.31 inches Hg (1026.5 mb)
Winds: from the WNW (300 degrees) at 7 MPH (6 knots; 3.1 m/s)
Visibility: 6 or more miles (10+ km)
Ceiling: 1700 feet AGL
Clouds: broken clouds at 1700 feet AGL
scattered clouds at 7000 feet AGL
Weather: no significant weather observed at this time

METAR text: SKBO 171800Z 35006KT 9999 BKN017 SCT070 19/07 A3034 NOSIG
Conditions at: SKBO (BOGOTA/ELDORADO , CO) observed 1800 UTC 16 September 2019
Temperature: 19.0°C (66°F)
Dewpoint: 7.0°C (45°F) [RH = 46%]
Pressure (altimeter): 30.34 inches Hg (1027.5 mb)
Winds: from the N (350 degrees) at 7 MPH (6 knots; 3.1 m/s)
Visibility: 6 or more miles (10+ km)
Ceiling: 1700 feet AGL
Clouds: broken clouds at 1700 feet AGL
scattered clouds at 7000 feet AGL
Weather: no significant weather observed at this time

METAR text: SKBO 171700Z 02006KT 350V050 9999 BKN017 SCT070 19/07 A3037 NOSIG
Conditions at: SKBO (BOGOTA/ELDORADO , CO) observed 1700 UTC 16 September 2019
Temperature: 19.0°C (66°F)
Dewpoint: 7.0°C (45°F) [RH = 46%]
Pressure (altimeter): 30.37 inches Hg (1028.5 mb)
Winds: from the NNE (20 degrees) at 7 MPH (6 knots; 3.1 m/s)
Visibility: 6 or more miles (10+ km)
Ceiling: 1700 feet AGL
Clouds: broken clouds at 1700 feet AGL
scattered clouds at 7000 feet AGL
Weather: no significant weather observed at this time

METAR text: SKBO 161600Z VRB05KT 9999 BKN017 SCT070 19/08 A3040 NOSIG
Conditions at: SKBO (BOGOTA/ELDORADO , CO) observed 1600 UTC 16 September 2019
Temperature: 19.0°C (66°F)
Dewpoint: 8.0°C (46°F) [RH = 49%]
Pressure (altimeter): 30.40 inches Hg (1029.5 mb)
Winds: variable direction winds at 6 MPH (5 knots; 2.6 m/s)
Visibility: 6 or more miles (10+ km)
Ceiling: 1700 feet AGL
Clouds: broken clouds at 1700 feet AGL
scattered clouds at 7000 feet AGL
Weather: no significant weather observed at this time

METAR text: SKBO 161500Z 22007KT 9000 SCT017 SCT070 BKN200 17/09 A3041 NOSIG RMK HZ
Conditions at: SKBO (BOGOTA/ELDORADO , CO) observed 1500 UTC 16 September 2019
Temperature: 17.0°C (63°F)
Dewpoint: 9.0°C (48°F) [RH = 59%]
Pressure (altimeter): 30.41 inches Hg (1029.9 mb)
Winds: from the SW (220 degrees) at 8 MPH (7 knots; 3.6 m/s)
Visibility: 6 miles ( 9 km)
Ceiling: 20000 feet AGL
Clouds: scattered clouds at 1700 feet AGL
scattered clouds at 7000 feet AGL
broken clouds at 20000 feet AGL
Weather: no significant weather observed at this time

METAR text: SKBO 161400Z 33004KT 9000 SCT017 SCT070 17/09 A3041 NOSIG RMK HZ
Conditions at: SKBO (BOGOTA/ELDORADO , CO) observed 1400 UTC 16 September 2019
Temperature: 17.0°C (63°F)
Dewpoint: 9.0°C (48°F) [RH = 59%]
Pressure (altimeter): 30.41 inches Hg (1029.9 mb)
Winds: from the NNW (330 degrees) at 5 MPH (4 knots; 2.1 m/s)
Visibility: 6 miles ( 9 km)
Ceiling: at least 12,000 feet AGL
Clouds: scattered clouds at 1700 feet AGL
scattered clouds at 7000 feet AGL
Weather: no significant weather observed at this time

METAR text: SKBO 161300Z VRB02KT 9000 FEW020 SCT080 16/09 A3040 NOSIG RMK HZ
Conditions at: SKBO (BOGOTA/ELDORADO , CO) observed 1300 UTC 16 September 2019
Temperature: 16.0°C (61°F)
Dewpoint: 9.0°C (48°F) [RH = 63%]
Pressure (altimeter): 30.40 inches Hg (1029.5 mb)
Winds: variable direction winds at 2 MPH (2 knots; 1.0 m/s)
Visibility: 6 miles ( 9 km)
Ceiling: at least 12,000 feet AGL
Clouds: few clouds at 2000 feet AGL
scattered clouds at 8000 feet AGL
Weather: no significant weather observed at this time

METAR text: SKBO 161200Z 35004KT 9999 BKN020 SCT080 12/10 A3039 NOSIG
Conditions at: SKBO (BOGOTA/ELDORADO , CO) observed 1200 UTC 16 September 2019
Temperature: 12.0°C (54°F)
Dewpoint: 10.0°C (50°F) [RH = 88%]
Pressure (altimeter): 30.39 inches Hg (1029.2 mb)
Winds: from the N (350 degrees) at 5 MPH (4 knots; 2.1 m/s)
Visibility: 6 or more miles (10+ km)
Ceiling: 2000 feet AGL
Clouds: broken clouds at 2000 feet AGL
scattered clouds at 8000 feet AGL
Weather: no significant weather observed at this time

METAR text: SKBO 161100Z 28003KT 250V310 9999 FEW017 BKN025 10/08 A3037 NOSIG
Conditions at: SKBO (BOGOTA/ELDORADO , CO) observed 1100 UTC 16 September 2019
Temperature: 10.0°C (50°F)
Dewpoint: 8.0°C (46°F) [RH = 87%]
Pressure (altimeter): 30.37 inches Hg (1028.5 mb)
Winds: from the W (280 degrees) at 3 MPH (3 knots; 1.5 m/s)
Visibility: 6 or more miles (10+ km)
Ceiling: 2500 feet AGL
Clouds: few clouds at 1700 feet AGL
broken clouds at 2500 feet AGL
Weather: no significant weather observed at this time

METAR text: SKBO 161000Z VRB02KT 9999 FEW017 SCT100 11/09 A3036 NOSIG
Conditions at: SKBO (BOGOTA/ELDORADO , CO) observed 1000 UTC 16 September 2019
Temperature: 11.0°C (52°F)
Dewpoint: 9.0°C (48°F) [RH = 87%]
Pressure (altimeter): 30.36 inches Hg (1028.2 mb)
Winds: variable direction winds at 2 MPH (2 knots; 1.0 m/s)
Visibility: 6 or more miles (10+ km)
Ceiling: at least 12,000 feet AGL
Clouds: few clouds at 1700 feet AGL
scattered clouds at 10000 feet AGL
Weather: no significant weather observed at this time

METAR text: SKBO 160900Z VRB02KT 9999 FEW017 SCT100 11/08 A3034 NOSIG
Conditions at: SKBO (BOGOTA/ELDORADO , CO) observed 0900 UTC 16 September 2019
Temperature: 11.0°C (52°F)
Dewpoint: 8.0°C (46°F) [RH = 82%]
Pressure (altimeter): 30.34 inches Hg (1027.5 mb)
Winds: variable direction winds at 2 MPH (2 knots; 1.0 m/s)
Visibility: 6 or more miles (10+ km)
Ceiling: at least 12,000 feet AGL
Clouds: few clouds at 1700 feet AGL
scattered clouds at 10000 feet AGL
Weather: no significant weather observed at this time

METAR text: SKBO 160800Z 32003KT 9999 FEW017 SCT100 11/08 A3033 NOSIG
Conditions at: SKBO (BOGOTA/ELDORADO , CO) observed 0800 UTC 16 September 2019
Temperature: 11.0°C (52°F)
Dewpoint: 8.0°C (46°F) [RH = 82%]
Pressure (altimeter): 30.33 inches Hg (1027.2 mb)
Winds: from the NW (320 degrees) at 3 MPH (3 knots; 1.5 m/s)
Visibility: 6 or more miles (10+ km)
Ceiling: at least 12,000 feet AGL
Clouds: few clouds at 1700 feet AGL
scattered clouds at 10000 feet AGL
Weather: no significant weather observed at this time

METAR text: SKBO 160700Z 07005KT 9999 FEW017 SCT100 11/08 A3033 NOSIG
Conditions at: SKBO (BOGOTA/ELDORADO , CO) observed 0700 UTC 16 September 2019
Temperature: 11.0°C (52°F)
Dewpoint: 8.0°C (46°F) [RH = 82%]
Pressure (altimeter): 30.33 inches Hg (1027.2 mb)
Winds: from the ENE (70 degrees) at 6 MPH (5 knots; 2.6 m/s)
Visibility: 6 or more miles (10+ km)
Ceiling: at least 12,000 feet AGL
Clouds: few clouds at 1700 feet AGL
scattered clouds at 10000 feet AGL
Weather: no significant weather observed at this time

METAR text: SKBO 160600Z VRB02KT 9999 FEW017 SCT030 BKN070 12/08 A3036 NOSIG
Conditions at: SKBO (BOGOTA/ELDORADO , CO) observed 0600 UTC 16 September 2019
Temperature: 12.0°C (54°F)
Dewpoint: 8.0°C (46°F) [RH = 76%]
Pressure (altimeter): 30.36 inches Hg (1028.2 mb)
Winds: variable direction winds at 2 MPH (2 knots; 1.0 m/s)
Visibility: 6 or more miles (10+ km)
Ceiling: 7000 feet AGL
Clouds: few clouds at 1700 feet AGL
scattered clouds at 3000 feet AGL
broken clouds at 7000 feet AGL
Weather: no significant weather observed at this time

METAR text: SKBO 160500Z 05006KT 9999 VCSH SCT017 BKN030 13/08 A3039 NOSIG RMK VCSH/SE
Conditions at: SKBO (BOGOTA/ELDORADO , CO) observed 0500 UTC 16 September 2019
Temperature: 13.0°C (55°F)
Dewpoint: 8.0°C (46°F) [RH = 72%]
Pressure (altimeter): 30.39 inches Hg (1029.2 mb)
Winds: from the NE (50 degrees) at 7 MPH (6 knots; 3.1 m/s)
Visibility: 6 or more miles (10+ km)
Ceiling: 3000 feet AGL
Clouds: scattered clouds at 1700 feet AGL
broken clouds at 3000 feet AGL
Weather: VCSH  (showers in vicinity)

METAR text: SKBO 160400Z 04003KT 350V060 9999 SCT017 BKN030 13/09 A3039 NOSIG
Conditions at: SKBO (BOGOTA/ELDORADO , CO) observed 0400 UTC 16 September 2019
Temperature: 13.0°C (55°F)
Dewpoint: 9.0°C (48°F) [RH = 77%]
Pressure (altimeter): 30.39 inches Hg (1029.2 mb)
Winds: from the NE (40 degrees) at 3 MPH (3 knots; 1.5 m/s)
Visibility: 6 or more miles (10+ km)
Ceiling: 3000 feet AGL
Clouds: scattered clouds at 1700 feet AGL
broken clouds at 3000 feet AGL
Weather: no significant weather observed at this time

METAR text: SKBO 160300Z 12004KT 9999 FEW017 BKN030 14/07 A3040 NOSIG
Conditions at: SKBO (BOGOTA/ELDORADO , CO) observed 0300 UTC 16 September 2019
Temperature: 14.0°C (57°F)
Dewpoint: 7.0°C (45°F) [RH = 63%]
Pressure (altimeter): 30.40 inches Hg (1029.5 mb)
Winds: from the ESE (120 degrees) at 5 MPH (4 knots; 2.1 m/s)
Visibility: 6 or more miles (10+ km)
Ceiling: 3000 feet AGL
Clouds: few clouds at 1700 feet AGL
broken clouds at 3000 feet AGL
Weather: no significant weather observed at this time

METAR text: SKBO 160200Z 11003KT 050V160 9999 FEW017 BKN030 15/08 A3038 NOSIG
Conditions at: SKBO (BOGOTA/ELDORADO , CO) observed 0200 UTC 16 September 2019
Temperature: 15.0°C (59°F)
Dewpoint: 8.0°C (46°F) [RH = 63%]
Pressure (altimeter): 30.38 inches Hg (1028.9 mb)
Winds: from the ESE (110 degrees) at 3 MPH (3 knots; 1.5 m/s)
Visibility: 6 or more miles (10+ km)
Ceiling: 3000 feet AGL
Clouds: few clouds at 1700 feet AGL
broken clouds at 3000 feet AGL
Weather: no significant weather observed at this time

Forecast for: SKBO (BOGOTA/ELDORADO , CO)
Text: TAF SKBO 171030Z 1712/1812 VRB02KT 9999 FEW017 SCT080
Forecast period: 1200 to 1400 UTC 17 September 2019
Forecast type: FROM: standard forecast or significant change
Winds: variable direction winds at 2 MPH (2 knots; 1.0 m/s)
Visibility: 6 or more miles 10+ km)
Ceiling: at least 12,000 feet AGL
Clouds: few clouds at 1700 feet AGL
scattered clouds at 8000 feet AGL
Weather: no significant weather forecast for this period
Text: TEMPO 1712/1714 6000 VCFG SCT010 BKN080
Forecast period: 1200 to 1400 UTC 17 September 2019
Forecast type: TEMPORARY: The following changes expected for less than half the time period
Visibility: 4 miles (6 km)
Ceiling: 8000 feet AGL
Clouds: scattered clouds at 1000 feet AGL
broken clouds at 8000 feet AGL
Weather: VCFG  (fog in vicinity)
Text: BECMG 1714/1716 15012KT
Forecast period: 1400 UTC 17 September 2019 to 0100 UTC 18 September 2019
Forecast type: BECOMING: Conditions expected to become as follows by 1600 UTC 17 September 2019
Winds: from the SSE (150 degrees) at 14 MPH (12 knots; 6.2 m/s)
Visibility: 6 or more miles 10+ km)
Ceiling: at least 12,000 feet AGL
Clouds: few clouds at 1700 feet AGL
scattered clouds at 8000 feet AGL
Weather: no significant weather forecast for this period
Text: PROB40
Forecast period: 2100 to 2300 UTC 17 September 2019
Forecast type: TEMPORARY: The following changes expected for less than half the time period
Visibility: missing
Ceiling: 8000 feet AGL
Clouds: scattered clouds at 1500 feet AGL
broken clouds at 8000 feet AGL
Weather: DZ  (moderate drizzle)
Text: TEMPO 1721/1723 DZ SCT015TCU BKN080
Forecast period: 0100 to 1200 UTC 18 September 2019
Forecast type: BECOMING: Conditions expected to become as follows by 0300 UTC 18 September 2019
Winds: variable direction winds at 2 MPH (2 knots; 1.0 m/s)
Visibility: 6 or more miles 10+ km)
Ceiling: at least 12,000 feet AGL
Clouds: few clouds at 1700 feet AGL
scattered clouds at 8000 feet AGL
Weather: no significant weather forecast for this period